X  Close Metar Aviation Weather Data     ENGM Oslo Airport, Gardermoen
Temperature
-9°C Temperature
-10°C Dewpoint
93% Humidity



Wind
2 M/S
5 MPH
8 KM/H
4 KTS



360°
North
Current Conditions

Clear Clear
Pressure 1028.92 (hPa) - 30.38 (inHg)
Visibility 6.2 (mile) - 10 (km)
Airport
Airport-code ENGM

Location: Oslo Airport, Gardermoen
Distance: 6 (km)

Metar:
ENGM 270250Z 36004KT CAVOK M09/M10 Q1029

Time: 27-01-2023 03:50 CET